Loomis, WA

7:18 PM PST on December 28, 2014 (GMT -0800)
Mt. Hull | Change Station
CLOSE
Current Station
Personal Weather Station
Location: Tonasket, WA
Elevation: 2995 ft
Nearby Weather Stations

Elev 2995 ft 48.83 °N, 119.33 °W | Updated 8 minutes ago

Overcast
Overcast
27.4 °F
Feels Like 27 °F
N
0.0
Wind Variable Wind from NE
Gusts 0.0 mph

Today
High -- | Low -- °F
--% Chance of Precip.
Yesterday
High -- | Low -- °F
Precip. -- in
7:51 AM 4:08 PM
First Quarter, 54% visible
Pressure 30.18 in
Visibility 10.0 miles
Clouds Overcast 8500 ft
Windchill 27 °F
Dew Point 23 °F
Humidity 83%
Rainfall 0.00 in
Snow Depth Not available.
UV 0.0 out of 12
Pollen .50 out of 12
Air Quality Not available.
Flu Activity Not available.
METAR KOMK 290253Z AUTO 31007KT 10SM OVC085 02/M04 A3014 RMK AO2 SLP220 T00171039 53005

More Conditions Fewer Conditions

Pressure 30.18 in
Visibility 10.0 miles
Clouds Overcast 8500 ft
Windchill 27 °F
Dew Point 23 °F
Humidity 83%
Rainfall 0.00 in
Snow Depth Not available.
UV 0.0 out of 12
Pollen .50 out of 12
Air Quality Not available.
Flu Activity Not available.
METAR KOMK 290253Z AUTO 31007KT 10SM OVC085 02/M04 A3014 RMK AO2 SLP220 T00171039 53005

More Conditions Fewer Conditions

10-Day Weather Forecast

Almanac

Astronomy

Dec. 28, 2014 Rise Set
Actual Time
Civil Twilight
Nautical Twilight
Astronomical Twilight
Moon
Length of Visible Light
Length of Day
Tomorrow will be .
, % of the Moon is Illuminated

Today's Extremes

State Highs State Lows

Community

WunderPhotos

Upload Photos

1,781,512 photos uploaded!

WunderBlogs® & News

Nearby

Air Quality

  Air Quality AQ Index Pollutant
Not available.

Snow Depth

Station Depth Elevation

Earthquake Activity

City Distance Mag. Time & Date
Minimum magnitude displayed is 2.5.

Coastal Water Temperatures

Place Temperature

Nearby Weather Stations